createdAt,value
2019-02-19T00:01:37.563Z,12.17
2019-02-19T00:06:42.949Z,11.20
2019-02-19T00:11:48.356Z,12.37
2019-02-19T00:16:53.729Z,12.37
2019-02-19T00:21:58.503Z,14.53
2019-02-19T00:27:03.783Z,13.20
2019-02-19T00:32:09.129Z,11.53
2019-02-19T00:37:14.490Z,12.37
2019-02-19T00:42:19.842Z,11.63
2019-02-19T00:47:25.178Z,11.87
2019-02-19T00:52:30.713Z,11.53
2019-02-19T00:57:36.031Z,10.83
2019-02-19T01:02:41.493Z,10.60
2019-02-19T01:07:47.024Z,12.20
2019-02-19T01:12:52.377Z,10.83
2019-02-19T01:17:57.731Z,11.07
2019-02-19T01:23:03.270Z,10.43
2019-02-19T01:28:08.562Z,11.33
2019-02-19T01:33:14.078Z,11.73
2019-02-19T01:38:18.867Z,10.43
2019-02-19T01:43:24.586Z,11.70
2019-02-19T01:48:29.903Z,10.83
2019-02-19T01:53:35.663Z,11.03
2019-02-19T01:58:40.980Z,11.53
2019-02-19T02:03:46.665Z,11.30
2019-02-19T02:08:52.014Z,10.57
2019-02-19T02:13:57.572Z,13.67
2019-02-19T02:19:03.330Z,11.60
2019-02-19T02:24:08.039Z,11.63
2019-02-19T02:29:13.714Z,11.40
2019-02-19T02:34:18.947Z,11.50
2019-02-19T02:39:24.747Z,11.93
2019-02-19T02:44:30.082Z,10.53
2019-02-19T02:49:35.911Z,11.93
2019-02-19T02:54:41.235Z,11.27
2019-02-19T02:59:46.703Z,11.40
2019-02-19T03:04:52.288Z,12.57
2019-02-19T03:09:57.661Z,12.27
2019-02-19T03:15:03.435Z,12.07
2019-02-19T03:20:08.864Z,11.43
2019-02-19T03:25:14.691Z,12.03
2019-02-19T03:30:20.033Z,11.47
2019-02-19T03:35:25.616Z,12.13
2019-02-19T03:40:30.941Z,12.57
2019-02-19T03:45:36.517Z,12.40
2019-02-19T03:50:42.074Z,11.30
2019-02-19T03:55:47.427Z,12.10
2019-02-19T04:00:52.747Z,12.23
2019-02-19T04:05:58.058Z,12.60
2019-02-19T04:11:03.327Z,13.27
2019-02-19T04:16:08.638Z,12.63
2019-02-19T04:21:13.947Z,12.70
2019-02-19T04:26:19.268Z,14.30
2019-02-19T04:31:24.583Z,13.77
2019-02-19T04:36:29.896Z,13.27
2019-02-19T04:41:35.211Z,13.93
2019-02-19T04:46:40.521Z,12.47
2019-02-19T04:51:45.869Z,13.27
2019-02-19T04:56:51.474Z,13.67
2019-02-19T05:01:56.776Z,19.30
2019-02-19T05:07:03.161Z,24.43
2019-02-19T05:12:08.474Z,22.07
2019-02-19T05:17:13.803Z,25.80
2019-02-19T05:22:19.102Z,25.77
2019-02-19T05:27:24.422Z,25.17
2019-02-19T05:32:29.722Z,23.90
2019-02-19T05:37:35.024Z,22.13
2019-02-19T05:42:40.434Z,16.33
2019-02-19T05:47:45.768Z,16.60
2019-02-19T05:52:51.095Z,21.17
2019-02-19T05:57:56.422Z,23.60
2019-02-19T06:03:01.859Z,23.57
2019-02-19T06:08:07.181Z,25.17
2019-02-19T06:13:12.481Z,24.73
2019-02-19T06:18:17.815Z,22.53
2019-02-19T06:23:23.109Z,20.93
2019-02-19T06:28:28.444Z,18.50
2019-02-19T06:33:34.836Z,16.37
2019-02-19T06:38:40.160Z,18.90
2019-02-19T06:43:45.471Z,20.43
2019-02-19T06:48:50.783Z,18.53
2019-02-19T06:53:56.111Z,21.60
2019-02-19T06:59:01.431Z,17.50
2019-02-19T07:04:12.601Z,23.50
2019-02-19T07:09:17.911Z,26.67
2019-02-19T07:14:23.295Z,30.50
2019-02-19T07:19:28.608Z,29.90
2019-02-19T07:24:33.912Z,34.70
2019-02-19T07:29:39.225Z,35.00
2019-02-19T07:34:44.528Z,38.13
2019-02-19T07:39:49.831Z,33.83
2019-02-19T07:44:55.155Z,27.57
2019-02-19T07:50:00.453Z,22.23
2019-02-19T07:55:06.179Z,26.20
2019-02-19T08:00:11.945Z,18.47
2019-02-19T08:05:17.250Z,15.13
2019-02-19T08:10:22.568Z,16.83
2019-02-19T08:15:27.903Z,15.67
2019-02-19T08:20:33.579Z,17.50
2019-02-19T08:25:38.880Z,16.93
2019-02-19T08:30:44.951Z,17.13
2019-02-19T08:35:50.251Z,17.83
2019-02-19T08:40:56.023Z,17.40
2019-02-19T08:46:01.506Z,16.17
2019-02-19T08:51:07.650Z,14.83
2019-02-19T08:56:13.094Z,16.30
2019-02-19T09:01:18.938Z,13.10
2019-02-19T09:06:25.040Z,16.03
2019-02-19T09:11:36.899Z,18.57
2019-02-19T09:16:43.473Z,15.67
2019-02-19T09:21:48.957Z,16.53
2019-02-19T09:26:55.096Z,17.03
2019-02-19T09:32:01.563Z,19.33
2019-02-19T09:37:06.923Z,20.37
2019-02-19T09:42:13.147Z,18.20
2019-02-19T09:47:18.870Z,17.90
2019-02-19T09:52:24.827Z,19.00
2019-02-19T09:57:32.613Z,18.07
2019-02-19T10:02:37.982Z,17.40
2019-02-19T10:07:44.991Z,17.07
2019-02-19T10:12:51.317Z,17.20
2019-02-19T10:17:56.662Z,17.47
2019-02-19T10:23:03.217Z,19.27
2019-02-19T10:28:09.362Z,16.20
2019-02-19T10:33:15.355Z,17.53
2019-02-19T10:38:21.892Z,17.77
2019-02-19T10:43:27.329Z,17.63
2019-02-19T10:48:33.751Z,17.70
2019-02-19T10:53:39.258Z,16.17
2019-02-19T10:58:45.143Z,17.13
2019-02-19T11:03:51.108Z,15.97
2019-02-19T11:08:56.622Z,15.37
2019-02-19T11:14:03.208Z,14.30
2019-02-19T11:19:08.899Z,5.23
2019-02-19T11:24:15.024Z,5.67
2019-02-19T11:29:21.406Z,9.23
2019-02-19T11:34:26.867Z,5.30
2019-02-19T11:39:33.412Z,8.83
2019-02-19T11:44:39.104Z,10.60
2019-02-19T11:49:45.055Z,7.17
2019-02-19T11:54:51.016Z,7.50
2019-02-19T11:59:57.501Z,7.10
2019-02-19T12:05:02.970Z,7.90
2019-02-19T12:10:09.136Z,5.90
2019-02-19T12:15:15.028Z,7.70
2019-02-19T12:20:21.546Z,6.87
2019-02-19T12:25:27.059Z,8.43
2019-02-19T12:30:32.722Z,7.57
2019-02-19T12:35:38.023Z,8.80
2019-02-19T12:40:43.878Z,9.50
2019-02-19T12:45:49.373Z,10.80
2019-02-19T12:50:55.525Z,4.60
2019-02-19T12:56:01.202Z,10.00
2019-02-19T13:01:07.236Z,7.57
2019-02-19T13:06:14.016Z,10.77
2019-02-19T13:11:19.575Z,9.23
2019-02-19T13:16:25.364Z,11.03
2019-02-19T13:21:30.731Z,10.17
2019-02-19T13:26:36.059Z,10.00
2019-02-19T13:31:41.382Z,9.87
2019-02-19T13:36:46.693Z,8.83
2019-02-19T13:41:52.019Z,8.83
2019-02-19T13:46:57.363Z,8.80
2019-02-19T13:52:10.318Z,9.03
2019-02-19T13:57:15.664Z,8.80
2019-02-19T14:02:20.980Z,9.00
2019-02-19T14:07:26.315Z,8.60
2019-02-19T14:12:31.643Z,9.67
2019-02-19T14:17:36.939Z,7.83
2019-02-19T14:22:53.768Z,7.90
2019-02-19T14:28:16.941Z,4.57
2019-02-19T14:33:48.674Z,7.47
2019-02-19T14:39:14.807Z,6.47
2019-02-19T14:44:37.661Z,7.63
2019-02-19T14:50:01.019Z,8.03
2019-02-19T14:55:36.255Z,9.20
2019-02-19T15:01:00.601Z,9.30
2019-02-19T15:06:35.228Z,18.87
2019-02-19T15:11:59.496Z,17.73
2019-02-19T15:17:29.707Z,17.53
2019-02-19T15:22:43.799Z,19.43
2019-02-19T15:28:08.707Z,18.47
2019-02-19T15:33:36.054Z,18.97
2019-02-19T15:38:59.219Z,19.97
2019-02-19T15:44:32.524Z,18.97
2019-02-19T15:50:06.254Z,21.70
2019-02-19T15:55:42.883Z,21.87
2019-02-19T16:01:07.288Z,20.80
2019-02-19T16:06:37.009Z,19.83
2019-02-19T16:12:10.359Z,23.10
2019-02-19T16:17:49.722Z,26.13
2019-02-19T16:23:18.455Z,24.67
2019-02-19T16:28:38.263Z,21.27
2019-02-19T16:34:01.209Z,23.07
2019-02-19T16:39:24.980Z,21.80
2019-02-19T16:45:01.684Z,21.57
2019-02-19T16:50:26.074Z,22.87
2019-02-19T16:55:46.452Z,24.47
2019-02-19T17:01:07.865Z,23.93
2019-02-19T17:06:39.140Z,24.20
2019-02-19T17:11:58.591Z,23.47
2019-02-19T17:17:26.311Z,23.07
2019-02-19T17:22:50.589Z,22.97
2019-02-19T17:28:27.245Z,23.07
2019-02-19T17:33:51.644Z,24.43
2019-02-19T17:39:11.832Z,26.77
2019-02-19T17:44:48.795Z,25.13
2019-02-19T17:50:19.408Z,26.60
2019-02-19T17:55:42.617Z,25.83
2019-02-19T18:01:01.048Z,17.70
2019-02-19T18:06:31.502Z,26.87
2019-02-19T18:12:07.948Z,24.03
2019-02-19T18:17:24.804Z,14.40
2019-02-19T18:22:31.085Z,10.63
2019-02-19T18:27:36.937Z,13.47
2019-02-19T18:32:42.492Z,13.17
2019-02-19T18:37:47.914Z,14.73
2019-02-19T18:42:53.328Z,13.40
2019-02-19T18:47:58.687Z,14.93
2019-02-19T18:53:04.047Z,11.93
2019-02-19T18:58:09.447Z,12.50
2019-02-19T19:03:14.912Z,12.37
2019-02-19T19:08:20.373Z,23.40
2019-02-19T19:13:25.796Z,33.77
2019-02-19T19:18:31.424Z,20.67
2019-02-19T19:23:37.005Z,14.73
2019-02-19T19:28:42.501Z,16.67
2019-02-19T19:33:48.087Z,15.17
2019-02-19T19:38:53.695Z,15.00
2019-02-19T19:43:59.180Z,12.03
2019-02-19T19:49:04.515Z,13.23
2019-02-19T19:54:10.059Z,15.47
2019-02-19T19:59:15.545Z,15.53
2019-02-19T20:04:21.088Z,13.73
2019-02-19T20:09:26.492Z,15.03
2019-02-19T20:14:31.908Z,16.80
2019-02-19T20:19:37.312Z,17.17
2019-02-19T20:24:42.816Z,14.60
2019-02-19T20:29:48.511Z,13.60
2019-02-19T20:34:54.030Z,15.00
2019-02-19T20:39:59.383Z,17.47
2019-02-19T20:45:05.540Z,15.87
2019-02-19T20:50:12.524Z,17.60
2019-02-19T20:55:19.448Z,18.90
2019-02-19T21:00:24.841Z,12.73
2019-02-19T21:05:30.507Z,13.50
2019-02-19T21:10:36.652Z,14.10
2019-02-19T21:15:42.063Z,14.77
2019-02-19T21:20:47.687Z,13.77
2019-02-19T21:25:53.263Z,13.17
2019-02-19T21:30:58.902Z,13.80
2019-02-19T21:36:04.358Z,14.00
2019-02-19T21:41:09.767Z,13.60
2019-02-19T21:46:15.154Z,13.13
2019-02-19T21:51:20.787Z,16.47
2019-02-19T21:56:26.182Z,15.77
2019-02-19T22:01:31.574Z,16.80
2019-02-19T22:06:39.368Z,17.23
2019-02-19T22:11:46.124Z,16.40
2019-02-19T22:16:51.792Z,16.13
2019-02-19T22:22:03.697Z,19.37
2019-02-19T22:27:09.152Z,18.87
2019-02-19T22:32:16.889Z,19.57
2019-02-19T22:37:22.416Z,15.43
2019-02-19T22:42:28.475Z,15.83
2019-02-19T22:47:35.538Z,14.93
2019-02-19T22:52:41.370Z,15.57
2019-02-19T22:57:47.784Z,15.80
2019-02-19T23:02:53.648Z,15.63
2019-02-19T23:07:59.494Z,15.37
2019-02-19T23:13:06.396Z,15.50
2019-02-19T23:18:12.807Z,15.40
2019-02-19T23:23:18.692Z,14.87
2019-02-19T23:28:24.805Z,15.90
2019-02-19T23:33:30.650Z,15.83
2019-02-19T23:38:37.035Z,15.07
2019-02-19T23:43:43.667Z,15.03
2019-02-19T23:48:50.190Z,15.93
2019-02-19T23:53:56.589Z,14.83
2019-02-19T23:59:03.105Z,14.27
